sensor_id;sensor_type;location;lat;lon;timestamp;P1;durP1;ratioP1;P2;durP2;ratioP2
757;SDS011;363;48.764;9.172;2023-02-24T00:00:06;19.55;;;14.88;;
757;SDS011;363;48.764;9.172;2023-02-24T00:02:54;19.95;;;15.00;;
757;SDS011;363;48.764;9.172;2023-02-24T00:05:19;18.90;;;15.03;;
757;SDS011;363;48.764;9.172;2023-02-24T00:07:47;18.60;;;16.00;;
757;SDS011;363;48.764;9.172;2023-02-24T00:10:13;21.83;;;15.77;;
757;SDS011;363;48.764;9.172;2023-02-24T00:12:43;21.05;;;16.35;;
757;SDS011;363;48.764;9.172;2023-02-24T00:15:11;24.10;;;16.63;;
757;SDS011;363;48.764;9.172;2023-02-24T00:17:40;23.65;;;16.73;;
757;SDS011;363;48.764;9.172;2023-02-24T00:20:07;19.77;;;14.82;;
757;SDS011;363;48.764;9.172;2023-02-24T00:22:36;24.65;;;16.80;;
757;SDS011;363;48.764;9.172;2023-02-24T00:25:03;19.17;;;15.48;;
757;SDS011;363;48.764;9.172;2023-02-24T00:27:29;21.40;;;15.77;;
757;SDS011;363;48.764;9.172;2023-02-24T00:29:56;26.13;;;16.10;;
757;SDS011;363;48.764;9.172;2023-02-24T00:32:22;21.40;;;15.33;;
757;SDS011;363;48.764;9.172;2023-02-24T00:34:48;21.70;;;15.87;;
757;SDS011;363;48.764;9.172;2023-02-24T00:37:13;23.03;;;16.00;;
757;SDS011;363;48.764;9.172;2023-02-24T00:39:39;22.93;;;15.10;;
757;SDS011;363;48.764;9.172;2023-02-24T00:42:06;19.15;;;16.55;;
757;SDS011;363;48.764;9.172;2023-02-24T00:44:33;18.58;;;14.85;;
757;SDS011;363;48.764;9.172;2023-02-24T00:47:01;17.92;;;14.30;;
757;SDS011;363;48.764;9.172;2023-02-24T00:49:29;18.95;;;15.18;;
757;SDS011;363;48.764;9.172;2023-02-24T00:51:56;18.05;;;14.60;;
757;SDS011;363;48.764;9.172;2023-02-24T00:54:22;20.67;;;15.43;;
757;SDS011;363;48.764;9.172;2023-02-24T00:56:51;20.45;;;15.90;;
757;SDS011;363;48.764;9.172;2023-02-24T00:59:17;22.63;;;15.77;;
757;SDS011;363;48.764;9.172;2023-02-24T01:01:43;26.00;;;19.53;;
757;SDS011;363;48.764;9.172;2023-02-24T01:04:10;26.48;;;19.33;;
757;SDS011;363;48.764;9.172;2023-02-24T01:06:41;26.55;;;19.33;;
757;SDS011;363;48.764;9.172;2023-02-24T01:09:10;26.17;;;19.80;;
757;SDS011;363;48.764;9.172;2023-02-24T01:11:36;25.80;;;18.85;;
757;SDS011;363;48.764;9.172;2023-02-24T01:14:22;23.67;;;18.30;;
757;SDS011;363;48.764;9.172;2023-02-24T01:16:51;24.25;;;19.05;;
757;SDS011;363;48.764;9.172;2023-02-24T01:19:21;20.80;;;17.20;;
757;SDS011;363;48.764;9.172;2023-02-24T01:21:55;29.08;;;20.30;;
757;SDS011;363;48.764;9.172;2023-02-24T01:24:22;25.42;;;19.00;;
757;SDS011;363;48.764;9.172;2023-02-24T01:26:48;24.25;;;18.65;;
757;SDS011;363;48.764;9.172;2023-02-24T01:29:14;24.70;;;18.37;;
757;SDS011;363;48.764;9.172;2023-02-24T01:31:40;22.90;;;18.43;;
757;SDS011;363;48.764;9.172;2023-02-24T01:34:07;22.13;;;18.55;;
757;SDS011;363;48.764;9.172;2023-02-24T01:36:35;24.73;;;19.05;;
757;SDS011;363;48.764;9.172;2023-02-24T01:39:03;24.58;;;20.13;;
757;SDS011;363;48.764;9.172;2023-02-24T01:41:31;26.80;;;20.10;;
757;SDS011;363;48.764;9.172;2023-02-24T01:44:04;23.93;;;18.73;;
757;SDS011;363;48.764;9.172;2023-02-24T01:46:37;23.08;;;19.30;;
757;SDS011;363;48.764;9.172;2023-02-24T01:51:53;22.10;;;17.00;;
757;SDS011;363;48.764;9.172;2023-02-24T01:54:27;22.05;;;18.83;;
757;SDS011;363;48.764;9.172;2023-02-24T01:56:57;20.02;;;17.80;;
757;SDS011;363;48.764;9.172;2023-02-24T01:59:24;20.83;;;16.53;;
757;SDS011;363;48.764;9.172;2023-02-24T02:01:56;22.98;;;17.40;;
757;SDS011;363;48.764;9.172;2023-02-24T02:04:33;18.52;;;15.73;;
757;SDS011;363;48.764;9.172;2023-02-24T02:07:21;20.30;;;17.13;;
757;SDS011;363;48.764;9.172;2023-02-24T02:09:48;20.92;;;17.02;;
757;SDS011;363;48.764;9.172;2023-02-24T02:12:17;19.25;;;16.60;;
757;SDS011;363;48.764;9.172;2023-02-24T02:14:47;21.30;;;17.40;;
757;SDS011;363;48.764;9.172;2023-02-24T02:19:55;26.80;;;18.38;;
757;SDS011;363;48.764;9.172;2023-02-24T02:28:18;22.52;;;17.77;;
757;SDS011;363;48.764;9.172;2023-02-24T02:49:53;24.90;;;17.67;;
757;SDS011;363;48.764;9.172;2023-02-24T02:52:28;24.67;;;19.05;;
757;SDS011;363;48.764;9.172;2023-02-24T02:55:05;22.55;;;18.63;;
757;SDS011;363;48.764;9.172;2023-02-24T02:57:56;22.77;;;17.42;;
757;SDS011;363;48.764;9.172;2023-02-24T03:00:25;25.15;;;18.33;;
757;SDS011;363;48.764;9.172;2023-02-24T03:03:06;25.30;;;18.02;;
757;SDS011;363;48.764;9.172;2023-02-24T03:05:38;23.55;;;18.63;;
757;SDS011;363;48.764;9.172;2023-02-24T03:08:12;22.73;;;18.52;;
757;SDS011;363;48.764;9.172;2023-02-24T03:10:42;22.80;;;18.60;;
757;SDS011;363;48.764;9.172;2023-02-24T03:13:15;23.42;;;19.38;;
757;SDS011;363;48.764;9.172;2023-02-24T03:15:44;22.55;;;17.95;;
757;SDS011;363;48.764;9.172;2023-02-24T03:18:17;25.60;;;20.05;;
757;SDS011;363;48.764;9.172;2023-02-24T03:20:53;22.48;;;18.20;;
757;SDS011;363;48.764;9.172;2023-02-24T03:23:37;24.27;;;19.75;;
757;SDS011;363;48.764;9.172;2023-02-24T03:37:10;25.83;;;20.27;;
757;SDS011;363;48.764;9.172;2023-02-24T03:39:36;22.20;;;18.57;;
757;SDS011;363;48.764;9.172;2023-02-24T03:42:04;26.10;;;19.33;;
757;SDS011;363;48.764;9.172;2023-02-24T03:44:50;23.40;;;19.35;;
757;SDS011;363;48.764;9.172;2023-02-24T03:47:17;24.70;;;19.60;;
757;SDS011;363;48.764;9.172;2023-02-24T03:49:44;22.45;;;17.70;;
757;SDS011;363;48.764;9.172;2023-02-24T04:00:39;22.48;;;18.48;;
757;SDS011;363;48.764;9.172;2023-02-24T04:09:05;22.65;;;18.38;;
757;SDS011;363;48.764;9.172;2023-02-24T04:16:58;26.95;;;19.52;;
757;SDS011;363;48.764;9.172;2023-02-24T04:19:38;31.05;;;20.80;;
757;SDS011;363;48.764;9.172;2023-02-24T04:22:07;27.70;;;20.33;;
757;SDS011;363;48.764;9.172;2023-02-24T04:24:36;28.60;;;21.10;;
757;SDS011;363;48.764;9.172;2023-02-24T04:27:03;29.88;;;21.02;;
757;SDS011;363;48.764;9.172;2023-02-24T04:29:32;28.25;;;21.13;;
757;SDS011;363;48.764;9.172;2023-02-24T04:32:05;25.20;;;19.85;;
757;SDS011;363;48.764;9.172;2023-02-24T04:34:33;29.35;;;22.40;;
757;SDS011;363;48.764;9.172;2023-02-24T04:37:00;31.23;;;23.70;;
757;SDS011;363;48.764;9.172;2023-02-24T04:39:26;30.20;;;21.02;;
757;SDS011;363;48.764;9.172;2023-02-24T04:41:53;30.33;;;22.38;;
757;SDS011;363;48.764;9.172;2023-02-24T04:44:19;31.10;;;21.57;;
757;SDS011;363;48.764;9.172;2023-02-24T04:46:46;33.20;;;22.27;;
757;SDS011;363;48.764;9.172;2023-02-24T04:49:16;29.30;;;22.95;;
757;SDS011;363;48.764;9.172;2023-02-24T04:51:43;32.95;;;22.55;;
757;SDS011;363;48.764;9.172;2023-02-24T04:54:10;33.90;;;22.50;;
757;SDS011;363;48.764;9.172;2023-02-24T04:56:41;35.85;;;23.63;;
757;SDS011;363;48.764;9.172;2023-02-24T04:59:09;31.52;;;21.50;;
757;SDS011;363;48.764;9.172;2023-02-24T05:01:35;34.90;;;23.92;;
757;SDS011;363;48.764;9.172;2023-02-24T05:04:05;31.42;;;22.60;;
757;SDS011;363;48.764;9.172;2023-02-24T05:06:31;36.90;;;24.85;;
757;SDS011;363;48.764;9.172;2023-02-24T05:08:57;34.42;;;22.85;;
757;SDS011;363;48.764;9.172;2023-02-24T05:11:25;35.80;;;22.35;;
757;SDS011;363;48.764;9.172;2023-02-24T05:13:59;38.50;;;24.02;;
757;SDS011;363;48.764;9.172;2023-02-24T05:16:28;38.97;;;24.02;;
757;SDS011;363;48.764;9.172;2023-02-24T05:18:54;37.47;;;24.27;;
757;SDS011;363;48.764;9.172;2023-02-24T05:21:39;35.70;;;23.42;;
757;SDS011;363;48.764;9.172;2023-02-24T05:24:06;38.33;;;24.67;;
757;SDS011;363;48.764;9.172;2023-02-24T05:26:35;35.28;;;22.52;;
757;SDS011;363;48.764;9.172;2023-02-24T05:29:03;36.08;;;24.00;;
757;SDS011;363;48.764;9.172;2023-02-24T05:31:30;37.85;;;24.08;;
757;SDS011;363;48.764;9.172;2023-02-24T05:34:00;35.47;;;24.33;;
757;SDS011;363;48.764;9.172;2023-02-24T05:36:38;34.75;;;22.88;;
757;SDS011;363;48.764;9.172;2023-02-24T05:39:05;39.42;;;22.92;;
757;SDS011;363;48.764;9.172;2023-02-24T05:41:32;35.00;;;21.80;;
757;SDS011;363;48.764;9.172;2023-02-24T05:44:04;36.95;;;24.17;;
757;SDS011;363;48.764;9.172;2023-02-24T05:46:36;37.08;;;22.92;;
757;SDS011;363;48.764;9.172;2023-02-24T05:49:05;37.25;;;23.45;;
757;SDS011;363;48.764;9.172;2023-02-24T05:51:47;34.83;;;22.70;;
757;SDS011;363;48.764;9.172;2023-02-24T05:54:23;36.10;;;22.00;;
757;SDS011;363;48.764;9.172;2023-02-24T05:56:54;37.67;;;23.60;;
757;SDS011;363;48.764;9.172;2023-02-24T05:59:22;41.17;;;23.50;;
757;SDS011;363;48.764;9.172;2023-02-24T06:01:48;37.00;;;23.33;;
757;SDS011;363;48.764;9.172;2023-02-24T06:04:18;31.98;;;23.30;;
757;SDS011;363;48.764;9.172;2023-02-24T06:07:15;41.42;;;24.70;;
757;SDS011;363;48.764;9.172;2023-02-24T06:09:49;39.45;;;24.58;;
757;SDS011;363;48.764;9.172;2023-02-24T06:12:21;41.13;;;23.40;;
757;SDS011;363;48.764;9.172;2023-02-24T06:14:50;38.85;;;24.10;;
757;SDS011;363;48.764;9.172;2023-02-24T06:17:17;35.30;;;22.60;;
757;SDS011;363;48.764;9.172;2023-02-24T06:19:43;33.22;;;21.52;;
757;SDS011;363;48.764;9.172;2023-02-24T06:22:14;36.08;;;23.05;;
757;SDS011;363;48.764;9.172;2023-02-24T06:24:43;35.67;;;23.40;;
757;SDS011;363;48.764;9.172;2023-02-24T06:27:12;35.90;;;23.63;;
757;SDS011;363;48.764;9.172;2023-02-24T06:29:46;43.22;;;23.63;;
757;SDS011;363;48.764;9.172;2023-02-24T06:32:20;42.90;;;24.02;;
757;SDS011;363;48.764;9.172;2023-02-24T06:34:48;39.25;;;24.42;;
757;SDS011;363;48.764;9.172;2023-02-24T06:37:15;37.60;;;24.90;;
757;SDS011;363;48.764;9.172;2023-02-24T06:39:42;38.65;;;23.05;;
757;SDS011;363;48.764;9.172;2023-02-24T06:42:08;41.75;;;25.17;;
757;SDS011;363;48.764;9.172;2023-02-24T06:44:35;37.72;;;24.05;;
757;SDS011;363;48.764;9.172;2023-02-24T06:47:02;38.55;;;23.33;;
757;SDS011;363;48.764;9.172;2023-02-24T06:49:29;34.88;;;22.95;;
757;SDS011;363;48.764;9.172;2023-02-24T06:51:55;35.80;;;24.27;;
757;SDS011;363;48.764;9.172;2023-02-24T06:54:21;39.50;;;24.77;;
757;SDS011;363;48.764;9.172;2023-02-24T06:56:49;40.50;;;24.77;;
757;SDS011;363;48.764;9.172;2023-02-24T06:59:15;38.73;;;25.17;;
757;SDS011;363;48.764;9.172;2023-02-24T07:01:48;37.65;;;25.20;;
757;SDS011;363;48.764;9.172;2023-02-24T07:04:15;38.35;;;24.13;;
757;SDS011;363;48.764;9.172;2023-02-24T07:06:51;45.50;;;26.00;;
757;SDS011;363;48.764;9.172;2023-02-24T07:09:21;37.88;;;23.13;;
757;SDS011;363;48.764;9.172;2023-02-24T07:11:48;33.38;;;21.23;;
757;SDS011;363;48.764;9.172;2023-02-24T07:14:16;42.28;;;23.90;;
757;SDS011;363;48.764;9.172;2023-02-24T07:16:47;39.95;;;26.75;;
757;SDS011;363;48.764;9.172;2023-02-24T07:19:17;40.83;;;25.77;;
757;SDS011;363;48.764;9.172;2023-02-24T07:21:44;42.38;;;24.75;;
757;SDS011;363;48.764;9.172;2023-02-24T07:24:23;41.45;;;24.45;;
757;SDS011;363;48.764;9.172;2023-02-24T07:26:57;39.55;;;24.40;;
757;SDS011;363;48.764;9.172;2023-02-24T07:29:26;45.38;;;26.30;;
757;SDS011;363;48.764;9.172;2023-02-24T07:31:52;48.05;;;27.95;;
757;SDS011;363;48.764;9.172;2023-02-24T07:34:20;38.63;;;24.48;;
757;SDS011;363;48.764;9.172;2023-02-24T07:36:48;42.58;;;26.27;;
757;SDS011;363;48.764;9.172;2023-02-24T07:39:15;43.78;;;26.02;;
757;SDS011;363;48.764;9.172;2023-02-24T07:41:42;44.33;;;25.33;;
757;SDS011;363;48.764;9.172;2023-02-24T07:44:13;42.30;;;25.00;;
757;SDS011;363;48.764;9.172;2023-02-24T07:46:39;44.80;;;26.35;;
757;SDS011;363;48.764;9.172;2023-02-24T07:49:07;43.97;;;24.90;;
757;SDS011;363;48.764;9.172;2023-02-24T07:51:37;41.40;;;24.98;;
757;SDS011;363;48.764;9.172;2023-02-24T07:54:02;42.43;;;25.93;;
757;SDS011;363;48.764;9.172;2023-02-24T07:56:29;46.10;;;25.75;;
757;SDS011;363;48.764;9.172;2023-02-24T07:58:58;44.58;;;25.42;;
757;SDS011;363;48.764;9.172;2023-02-24T08:01:24;38.20;;;24.15;;
757;SDS011;363;48.764;9.172;2023-02-24T08:03:57;37.67;;;24.40;;
757;SDS011;363;48.764;9.172;2023-02-24T08:06:37;44.63;;;25.20;;
757;SDS011;363;48.764;9.172;2023-02-24T08:09:08;41.42;;;24.42;;
757;SDS011;363;48.764;9.172;2023-02-24T08:11:45;44.42;;;25.17;;
757;SDS011;363;48.764;9.172;2023-02-24T08:14:19;39.03;;;24.15;;
757;SDS011;363;48.764;9.172;2023-02-24T08:16:48;40.75;;;23.63;;
757;SDS011;363;48.764;9.172;2023-02-24T08:19:16;36.60;;;22.63;;
757;SDS011;363;48.764;9.172;2023-02-24T08:21:47;35.47;;;21.50;;
757;SDS011;363;48.764;9.172;2023-02-24T08:24:17;38.42;;;24.05;;
757;SDS011;363;48.764;9.172;2023-02-24T08:26:47;38.17;;;22.55;;
757;SDS011;363;48.764;9.172;2023-02-24T08:29:37;33.45;;;22.65;;
757;SDS011;363;48.764;9.172;2023-02-24T08:32:39;33.42;;;21.73;;
757;SDS011;363;48.764;9.172;2023-02-24T08:35:17;29.48;;;21.77;;
757;SDS011;363;48.764;9.172;2023-02-24T08:37:45;30.73;;;21.17;;
757;SDS011;363;48.764;9.172;2023-02-24T08:40:17;33.38;;;20.48;;
757;SDS011;363;48.764;9.172;2023-02-24T08:42:57;28.58;;;20.02;;
757;SDS011;363;48.764;9.172;2023-02-24T08:45:26;29.02;;;20.10;;
757;SDS011;363;48.764;9.172;2023-02-24T08:47:57;30.52;;;19.60;;
757;SDS011;363;48.764;9.172;2023-02-24T08:50:27;26.05;;;18.70;;
757;SDS011;363;48.764;9.172;2023-02-24T08:52:58;25.10;;;18.05;;
757;SDS011;363;48.764;9.172;2023-02-24T08:55:25;22.48;;;17.40;;
757;SDS011;363;48.764;9.172;2023-02-24T08:57:57;23.30;;;16.40;;
757;SDS011;363;48.764;9.172;2023-02-24T09:00:26;21.67;;;15.73;;
757;SDS011;363;48.764;9.172;2023-02-24T09:03:13;20.35;;;15.45;;
757;SDS011;363;48.764;9.172;2023-02-24T09:06:09;21.10;;;16.08;;
757;SDS011;363;48.764;9.172;2023-02-24T09:08:37;21.23;;;15.35;;
757;SDS011;363;48.764;9.172;2023-02-24T09:11:08;19.55;;;14.10;;
757;SDS011;363;48.764;9.172;2023-02-24T09:13:38;19.75;;;14.50;;
757;SDS011;363;48.764;9.172;2023-02-24T09:16:22;20.40;;;14.65;;
757;SDS011;363;48.764;9.172;2023-02-24T09:18:49;20.73;;;14.52;;
757;SDS011;363;48.764;9.172;2023-02-24T09:21:35;20.92;;;13.82;;
757;SDS011;363;48.764;9.172;2023-02-24T09:24:14;17.52;;;12.38;;
757;SDS011;363;48.764;9.172;2023-02-24T09:26:51;17.38;;;12.95;;
757;SDS011;363;48.764;9.172;2023-02-24T09:29:23;16.80;;;12.60;;
757;SDS011;363;48.764;9.172;2023-02-24T09:31:59;17.40;;;11.40;;
757;SDS011;363;48.764;9.172;2023-02-24T09:34:36;17.13;;;11.07;;
757;SDS011;363;48.764;9.172;2023-02-24T09:37:10;15.38;;;11.32;;
757;SDS011;363;48.764;9.172;2023-02-24T09:39:51;15.80;;;11.52;;
757;SDS011;363;48.764;9.172;2023-02-24T09:42:25;17.13;;;11.05;;
757;SDS011;363;48.764;9.172;2023-02-24T09:44:59;19.25;;;10.32;;
757;SDS011;363;48.764;9.172;2023-02-24T09:47:45;18.70;;;10.18;;
757;SDS011;363;48.764;9.172;2023-02-24T09:52:55;16.75;;;8.23;;
757;SDS011;363;48.764;9.172;2023-02-24T10:04:02;16.70;;;10.93;;
757;SDS011;363;48.764;9.172;2023-02-24T10:06:57;18.63;;;12.68;;
757;SDS011;363;48.764;9.172;2023-02-24T10:09:58;16.60;;;9.23;;
757;SDS011;363;48.764;9.172;2023-02-24T10:12:43;18.20;;;10.88;;
757;SDS011;363;48.764;9.172;2023-02-24T10:15:37;15.82;;;10.57;;
757;SDS011;363;48.764;9.172;2023-02-24T10:18:25;12.63;;;8.02;;
757;SDS011;363;48.764;9.172;2023-02-24T10:20:56;13.90;;;9.10;;
757;SDS011;363;48.764;9.172;2023-02-24T10:34:47;19.77;;;13.90;;
757;SDS011;363;48.764;9.172;2023-02-24T10:37:16;19.92;;;12.85;;
757;SDS011;363;48.764;9.172;2023-02-24T10:39:47;16.83;;;11.63;;
757;SDS011;363;48.764;9.172;2023-02-24T10:42:24;17.30;;;11.82;;
757;SDS011;363;48.764;9.172;2023-02-24T10:45:03;18.35;;;11.48;;
757;SDS011;363;48.764;9.172;2023-02-24T10:47:38;15.07;;;11.77;;
757;SDS011;363;48.764;9.172;2023-02-24T10:50:18;18.05;;;11.57;;
757;SDS011;363;48.764;9.172;2023-02-24T10:52:47;25.13;;;12.57;;
757;SDS011;363;48.764;9.172;2023-02-24T11:00:51;18.88;;;11.13;;
757;SDS011;363;48.764;9.172;2023-02-24T11:03:38;20.80;;;11.68;;
757;SDS011;363;48.764;9.172;2023-02-24T11:06:20;19.52;;;11.55;;
757;SDS011;363;48.764;9.172;2023-02-24T11:11:45;29.17;;;14.05;;
757;SDS011;363;48.764;9.172;2023-02-24T11:14:30;24.10;;;15.38;;
757;SDS011;363;48.764;9.172;2023-02-24T11:17:21;26.15;;;15.90;;
757;SDS011;363;48.764;9.172;2023-02-24T11:22:24;24.40;;;14.93;;
757;SDS011;363;48.764;9.172;2023-02-24T11:24:56;28.48;;;16.40;;
757;SDS011;363;48.764;9.172;2023-02-24T11:27:32;30.13;;;17.42;;
757;SDS011;363;48.764;9.172;2023-02-24T11:35:32;31.55;;;17.85;;
757;SDS011;363;48.764;9.172;2023-02-24T11:41:00;25.20;;;15.88;;
757;SDS011;363;48.764;9.172;2023-02-24T11:43:32;25.45;;;15.77;;
757;SDS011;363;48.764;9.172;2023-02-24T11:46:04;20.63;;;14.65;;
757;SDS011;363;48.764;9.172;2023-02-24T11:48:40;23.65;;;14.20;;
757;SDS011;363;48.764;9.172;2023-02-24T11:51:17;20.20;;;13.10;;
757;SDS011;363;48.764;9.172;2023-02-24T11:58:59;23.42;;;14.20;;
757;SDS011;363;48.764;9.172;2023-02-24T12:06:56;20.10;;;12.48;;
757;SDS011;363;48.764;9.172;2023-02-24T12:09:35;17.73;;;11.45;;
757;SDS011;363;48.764;9.172;2023-02-24T12:12:46;17.88;;;12.38;;
757;SDS011;363;48.764;9.172;2023-02-24T12:15:12;23.00;;;14.85;;
757;SDS011;363;48.764;9.172;2023-02-24T12:18:01;18.27;;;12.82;;
757;SDS011;363;48.764;9.172;2023-02-24T12:20:35;19.20;;;11.60;;
757;SDS011;363;48.764;9.172;2023-02-24T12:26:02;17.95;;;10.48;;
757;SDS011;363;48.764;9.172;2023-02-24T12:31:00;17.60;;;9.67;;
757;SDS011;363;48.764;9.172;2023-02-24T12:36:37;15.63;;;9.68;;
757;SDS011;363;48.764;9.172;2023-02-24T12:44:30;12.52;;;9.07;;
757;SDS011;363;48.764;9.172;2023-02-24T12:47:10;19.48;;;12.45;;
757;SDS011;363;48.764;9.172;2023-02-24T12:49:48;19.33;;;10.20;;
757;SDS011;363;48.764;9.172;2023-02-24T12:55:18;14.10;;;7.60;;
757;SDS011;363;48.764;9.172;2023-02-24T13:00:41;14.27;;;6.07;;
757;SDS011;363;48.764;9.172;2023-02-24T13:06:54;13.13;;;8.23;;
757;SDS011;363;48.764;9.172;2023-02-24T13:09:13;15.70;;;6.63;;
757;SDS011;363;48.764;9.172;2023-02-24T13:12:12;7.95;;;6.22;;
757;SDS011;363;48.764;9.172;2023-02-24T13:15:05;10.35;;;5.80;;
757;SDS011;363;48.764;9.172;2023-02-24T13:17:44;9.27;;;6.43;;
757;SDS011;363;48.764;9.172;2023-02-24T13:20:12;13.35;;;7.20;;
757;SDS011;363;48.764;9.172;2023-02-24T13:22:50;9.45;;;5.65;;
757;SDS011;363;48.764;9.172;2023-02-24T13:25:17;10.63;;;6.60;;
757;SDS011;363;48.764;9.172;2023-02-24T13:27:53;10.90;;;7.30;;
757;SDS011;363;48.764;9.172;2023-02-24T13:35:43;13.50;;;6.75;;
757;SDS011;363;48.764;9.172;2023-02-24T13:38:24;10.13;;;6.63;;
757;SDS011;363;48.764;9.172;2023-02-24T13:43:52;11.70;;;7.47;;
757;SDS011;363;48.764;9.172;2023-02-24T13:46:21;15.13;;;7.82;;
757;SDS011;363;48.764;9.172;2023-02-24T13:51:44;12.10;;;7.90;;
757;SDS011;363;48.764;9.172;2023-02-24T14:03:08;12.18;;;5.25;;
757;SDS011;363;48.764;9.172;2023-02-24T14:05:36;11.73;;;5.88;;
757;SDS011;363;48.764;9.172;2023-02-24T14:08:05;11.35;;;5.15;;
757;SDS011;363;48.764;9.172;2023-02-24T14:10:31;12.88;;;8.23;;
757;SDS011;363;48.764;9.172;2023-02-24T14:13:01;19.48;;;10.90;;
757;SDS011;363;48.764;9.172;2023-02-24T14:15:36;18.98;;;11.30;;
757;SDS011;363;48.764;9.172;2023-02-24T14:18:15;17.80;;;10.82;;
757;SDS011;363;48.764;9.172;2023-02-24T14:20:46;15.73;;;7.53;;
757;SDS011;363;48.764;9.172;2023-02-24T14:23:22;14.80;;;9.00;;
757;SDS011;363;48.764;9.172;2023-02-24T14:25:53;22.00;;;10.32;;
757;SDS011;363;48.764;9.172;2023-02-24T14:28:22;23.33;;;11.35;;
757;SDS011;363;48.764;9.172;2023-02-24T14:30:53;19.73;;;10.85;;
757;SDS011;363;48.764;9.172;2023-02-24T14:33:25;23.08;;;11.13;;
757;SDS011;363;48.764;9.172;2023-02-24T14:35:59;15.77;;;10.85;;
757;SDS011;363;48.764;9.172;2023-02-24T14:38:32;20.00;;;10.30;;
757;SDS011;363;48.764;9.172;2023-02-24T14:40:58;20.30;;;11.07;;
757;SDS011;363;48.764;9.172;2023-02-24T14:43:24;15.45;;;10.10;;
757;SDS011;363;48.764;9.172;2023-02-24T14:45:51;19.13;;;9.80;;
757;SDS011;363;48.764;9.172;2023-02-24T14:51:04;14.88;;;10.02;;
757;SDS011;363;48.764;9.172;2023-02-24T14:53:36;17.73;;;9.20;;
757;SDS011;363;48.764;9.172;2023-02-24T14:56:10;18.70;;;11.55;;
757;SDS011;363;48.764;9.172;2023-02-24T14:58:47;19.45;;;11.05;;
757;SDS011;363;48.764;9.172;2023-02-24T15:03:47;13.48;;;7.47;;
757;SDS011;363;48.764;9.172;2023-02-24T15:06:49;11.77;;;6.90;;
757;SDS011;363;48.764;9.172;2023-02-24T15:09:41;15.63;;;8.00;;
757;SDS011;363;48.764;9.172;2023-02-24T15:12:42;11.32;;;7.22;;
757;SDS011;363;48.764;9.172;2023-02-24T15:15:04;13.23;;;6.85;;
757;SDS011;363;48.764;9.172;2023-02-24T15:17:32;11.98;;;7.60;;
757;SDS011;363;48.764;9.172;2023-02-24T15:22:48;14.45;;;9.57;;
757;SDS011;363;48.764;9.172;2023-02-24T15:27:54;13.82;;;9.18;;
757;SDS011;363;48.764;9.172;2023-02-24T15:33:37;17.05;;;10.20;;
757;SDS011;363;48.764;9.172;2023-02-24T15:35:45;14.70;;;9.10;;
757;SDS011;363;48.764;9.172;2023-02-24T15:38:19;16.70;;;9.15;;
757;SDS011;363;48.764;9.172;2023-02-24T15:40:57;17.13;;;11.93;;
757;SDS011;363;48.764;9.172;2023-02-24T15:46:23;16.65;;;9.00;;
757;SDS011;363;48.764;9.172;2023-02-24T15:48:54;19.90;;;9.20;;
757;SDS011;363;48.764;9.172;2023-02-24T15:53:56;9.93;;;7.40;;
757;SDS011;363;48.764;9.172;2023-02-24T15:56:23;10.48;;;7.30;;
757;SDS011;363;48.764;9.172;2023-02-24T15:58:49;15.20;;;7.87;;
757;SDS011;363;48.764;9.172;2023-02-24T16:01:14;13.43;;;6.80;;
757;SDS011;363;48.764;9.172;2023-02-24T16:03:40;10.63;;;6.53;;
757;SDS011;363;48.764;9.172;2023-02-24T16:06:07;9.60;;;7.20;;
757;SDS011;363;48.764;9.172;2023-02-24T16:08:43;12.25;;;6.70;;
757;SDS011;363;48.764;9.172;2023-02-24T16:11:10;13.90;;;7.53;;
757;SDS011;363;48.764;9.172;2023-02-24T16:13:37;14.30;;;8.05;;
757;SDS011;363;48.764;9.172;2023-02-24T16:16:04;14.80;;;8.90;;
757;SDS011;363;48.764;9.172;2023-02-24T16:18:31;17.33;;;8.45;;
757;SDS011;363;48.764;9.172;2023-02-24T16:20:57;16.57;;;7.60;;
757;SDS011;363;48.764;9.172;2023-02-24T16:23:23;12.03;;;8.20;;
757;SDS011;363;48.764;9.172;2023-02-24T16:25:54;13.73;;;7.72;;
757;SDS011;363;48.764;9.172;2023-02-24T16:28:22;12.93;;;8.38;;
757;SDS011;363;48.764;9.172;2023-02-24T16:30:49;18.98;;;8.82;;
757;SDS011;363;48.764;9.172;2023-02-24T16:33:16;13.32;;;8.88;;
757;SDS011;363;48.764;9.172;2023-02-24T16:35:44;16.45;;;9.05;;
757;SDS011;363;48.764;9.172;2023-02-24T16:38:15;14.23;;;9.10;;
757;SDS011;363;48.764;9.172;2023-02-24T16:40:42;14.70;;;8.70;;
757;SDS011;363;48.764;9.172;2023-02-24T16:43:10;15.80;;;9.25;;
757;SDS011;363;48.764;9.172;2023-02-24T16:45:37;18.80;;;9.02;;
757;SDS011;363;48.764;9.172;2023-02-24T16:48:05;18.83;;;11.38;;
757;SDS011;363;48.764;9.172;2023-02-24T16:50:37;14.48;;;9.23;;
757;SDS011;363;48.764;9.172;2023-02-24T16:53:05;14.93;;;10.00;;
757;SDS011;363;48.764;9.172;2023-02-24T16:55:31;14.15;;;10.32;;
757;SDS011;363;48.764;9.172;2023-02-24T16:57:57;17.95;;;11.13;;
757;SDS011;363;48.764;9.172;2023-02-24T17:00:22;15.77;;;10.90;;
757;SDS011;363;48.764;9.172;2023-02-24T17:02:48;15.93;;;10.57;;
757;SDS011;363;48.764;9.172;2023-02-24T17:05:25;13.45;;;10.40;;
757;SDS011;363;48.764;9.172;2023-02-24T17:07:52;15.85;;;9.90;;
757;SDS011;363;48.764;9.172;2023-02-24T17:10:20;16.77;;;10.60;;
757;SDS011;363;48.764;9.172;2023-02-24T17:12:46;15.02;;;10.50;;
757;SDS011;363;48.764;9.172;2023-02-24T17:15:16;17.90;;;11.30;;
757;SDS011;363;48.764;9.172;2023-02-24T17:17:46;15.68;;;10.80;;
757;SDS011;363;48.764;9.172;2023-02-24T17:20:16;14.32;;;10.52;;
757;SDS011;363;48.764;9.172;2023-02-24T17:22:43;18.65;;;11.40;;
757;SDS011;363;48.764;9.172;2023-02-24T17:25:13;19.50;;;11.65;;
757;SDS011;363;48.764;9.172;2023-02-24T17:27:40;16.45;;;10.27;;
757;SDS011;363;48.764;9.172;2023-02-24T17:30:07;14.38;;;11.27;;
757;SDS011;363;48.764;9.172;2023-02-24T17:32:36;14.02;;;10.23;;
757;SDS011;363;48.764;9.172;2023-02-24T17:35:01;14.63;;;10.57;;
757;SDS011;363;48.764;9.172;2023-02-24T17:37:27;15.50;;;10.67;;
757;SDS011;363;48.764;9.172;2023-02-24T17:39:52;14.77;;;10.50;;
757;SDS011;363;48.764;9.172;2023-02-24T17:42:18;18.40;;;11.80;;
757;SDS011;363;48.764;9.172;2023-02-24T17:44:44;20.70;;;12.13;;
757;SDS011;363;48.764;9.172;2023-02-24T17:47:09;15.57;;;10.40;;
757;SDS011;363;48.764;9.172;2023-02-24T17:49:36;13.32;;;9.88;;
757;SDS011;363;48.764;9.172;2023-02-24T17:52:01;14.23;;;10.23;;
757;SDS011;363;48.764;9.172;2023-02-24T17:54:27;13.37;;;9.40;;
757;SDS011;363;48.764;9.172;2023-02-24T17:56:53;10.57;;;7.90;;
757;SDS011;363;48.764;9.172;2023-02-24T17:59:18;15.97;;;10.90;;
757;SDS011;363;48.764;9.172;2023-02-24T18:01:44;14.47;;;7.83;;
757;SDS011;363;48.764;9.172;2023-02-24T18:04:10;12.17;;;9.10;;
757;SDS011;363;48.764;9.172;2023-02-24T18:06:38;10.65;;;7.90;;
757;SDS011;363;48.764;9.172;2023-02-24T18:09:05;10.52;;;7.97;;
757;SDS011;363;48.764;9.172;2023-02-24T18:11:30;10.17;;;7.40;;
757;SDS011;363;48.764;9.172;2023-02-24T18:13:57;12.80;;;8.10;;
757;SDS011;363;48.764;9.172;2023-02-24T18:16:24;8.57;;;6.90;;
757;SDS011;363;48.764;9.172;2023-02-24T18:18:50;9.77;;;6.75;;
757;SDS011;363;48.764;9.172;2023-02-24T18:21:16;9.40;;;6.47;;
757;SDS011;363;48.764;9.172;2023-02-24T18:23:42;8.07;;;5.50;;
757;SDS011;363;48.764;9.172;2023-02-24T18:26:09;9.10;;;6.70;;
757;SDS011;363;48.764;9.172;2023-02-24T18:28:36;7.47;;;6.05;;
757;SDS011;363;48.764;9.172;2023-02-24T18:31:14;6.82;;;5.30;;
757;SDS011;363;48.764;9.172;2023-02-24T18:33:42;5.45;;;4.95;;
757;SDS011;363;48.764;9.172;2023-02-24T18:36:08;10.40;;;7.80;;
757;SDS011;363;48.764;9.172;2023-02-24T18:38:34;5.68;;;5.07;;
757;SDS011;363;48.764;9.172;2023-02-24T18:41:01;5.25;;;4.18;;